Time;durP1;ratioP1;P1;durP2;ratioP2;P2;SDS_P1;SDS_P2;PMS_P1;PMS_P2;Temp;Humidity;BMP_temperature;BMP_pressure;BME280_temperature;BME280_humidity;BME280_pressure;Samples;Min_cycle;Max_cycle;Signal;HPM_P1;HPM_P2
2022/04/12 00:00:43;;;;;;;30.58;18.83;;;3.80;99.90;;;;;;5050440;28;20201;-50
2022/04/12 00:03:11;;;;;;;24.23;17.92;;;3.70;99.90;;;;;;5051452;28;20435;-52
2022/04/12 00:05:40;;;;;;;28.25;20.23;;;3.70;99.90;;;;;;5048350;28;20239;-50
2022/04/12 00:08:09;;;;;;;25.98;17.75;;;3.60;99.90;;;;;;5052384;28;20252;-49
2022/04/12 00:10:40;;;;;;;20.75;16.83;;;3.60;99.90;;;;;;5049636;28;20198;-53
2022/04/12 00:13:07;;;;;;;28.17;18.63;;;3.60;99.90;;;;;;5052156;28;20206;-50
2022/04/12 00:15:38;;;;;;;39.03;20.75;;;3.40;99.90;;;;;;5048005;28;20246;-51
2022/04/12 00:20:55;;;;;;;33.22;20.70;;;3.40;99.90;;;;;;5048237;28;20211;-48
2022/04/12 00:23:26;;;;;;;35.83;19.45;;;3.30;99.90;;;;;;5047991;28;20270;-51
2022/04/12 00:25:53;;;;;;;34.40;19.25;;;3.30;99.90;;;;;;5048068;28;20260;-53
2022/04/12 00:28:21;;;;;;;26.25;21.15;;;3.40;99.90;;;;;;5051522;28;20222;-49
2022/04/12 00:30:48;;;;;;;30.95;19.92;;;3.50;99.90;;;;;;5048878;28;20215;-47
2022/04/12 00:33:15;;;;;;;28.73;19.65;;;3.50;99.90;;;;;;5047967;28;20393;-51
2022/04/12 00:35:43;;;;;;;35.72;20.90;;;3.50;99.90;;;;;;5048879;28;20369;-47
2022/04/12 00:38:22;;;;;;;34.08;21.52;;;3.50;99.90;;;;;;5052927;28;20300;-50
2022/04/12 00:40:50;;;;;;;28.73;19.00;;;3.20;99.90;;;;;;5048353;28;20204;-50
2022/04/12 00:43:18;;;;;;;26.45;20.88;;;3.00;99.90;;;;;;5052872;28;20219;-49
2022/04/12 00:45:47;;;;;;;29.10;21.33;;;3.00;99.90;;;;;;5053360;28;20200;-50
2022/04/12 00:48:14;;;;;;;38.15;22.63;;;3.20;99.90;;;;;;5062203;28;20214;-50
2022/04/12 00:50:42;;;;;;;34.33;22.38;;;3.20;99.90;;;;;;5049735;28;20207;-49
2022/04/12 00:53:09;;;;;;;35.80;20.40;;;3.20;99.90;;;;;;5052532;28;20298;-50
2022/04/12 00:55:37;;;;;;;35.33;20.83;;;3.20;99.90;;;;;;5054263;28;20203;-48
2022/04/12 00:58:07;;;;;;;36.28;22.45;;;3.20;99.90;;;;;;5052112;28;20274;-51
2022/04/12 01:00:35;;;;;;;28.80;21.15;;;3.20;99.90;;;;;;5048234;28;20230;-49
2022/04/12 01:03:03;;;;;;;27.52;20.02;;;3.20;99.90;;;;;;5050925;28;20424;-49
2022/04/12 01:05:32;;;;;;;27.60;19.20;;;2.90;99.90;;;;;;5048820;28;20258;-47
2022/04/12 01:08:04;;;;;;;33.58;23.50;;;2.70;99.90;;;;;;5050431;28;20241;-48
2022/04/12 01:10:35;;;;;;;37.70;22.02;;;2.30;99.90;;;;;;5048116;28;20197;-49
2022/04/12 01:13:02;;;;;;;26.10;22.10;;;2.50;99.90;;;;;;5046076;28;20208;-49
2022/04/12 01:15:29;;;;;;;33.33;24.00;;;2.60;99.90;;;;;;5049413;28;20553;-47
2022/04/12 01:17:57;;;;;;;36.60;23.05;;;2.70;99.90;;;;;;5049837;28;20220;-53
2022/04/12 01:20:29;;;;;;;49.83;25.70;;;2.60;99.90;;;;;;5051073;28;20241;-49
2022/04/12 01:23:12;;;;;;;33.88;24.38;;;2.50;99.90;;;;;;5049927;28;20583;-53
2022/04/12 01:25:40;;;;;;;46.90;31.25;;;2.50;99.90;;;;;;5047067;28;20197;-50
2022/04/12 01:28:09;;;;;;;35.65;26.10;;;2.60;99.90;;;;;;5057859;28;20215;-51
2022/04/12 01:30:36;;;;;;;44.03;26.35;;;2.50;99.90;;;;;;5053464;28;20496;-51
2022/04/12 01:33:04;;;;;;;54.95;34.47;;;2.60;99.90;;;;;;5050660;28;20223;-51
2022/04/12 01:35:32;;;;;;;53.15;37.58;;;2.60;99.90;;;;;;5049126;28;20534;-51
2022/04/12 01:37:59;;;;;;;54.92;37.17;;;2.60;99.90;;;;;;5052720;28;20231;-50
2022/04/12 01:40:30;;;;;;;64.00;37.25;;;2.60;99.90;;;;;;5049846;28;20199;-50
2022/04/12 01:42:57;;;;;;;55.55;38.95;;;2.60;99.90;;;;;;5049435;28;20223;-50
2022/04/12 01:45:27;;;;;;;51.83;37.40;;;2.50;99.90;;;;;;5053955;28;20383;-48
2022/04/12 01:47:58;;;;;;;46.75;35.75;;;2.50;99.90;;;;;;5052244;28;20213;-51
2022/04/12 01:50:25;;;;;;;47.75;30.95;;;2.60;99.90;;;;;;5057089;28;20394;-49
2022/04/12 01:52:53;;;;;;;53.92;33.90;;;2.50;99.90;;;;;;5051653;28;20211;-48
2022/04/12 01:55:20;;;;;;;42.67;32.42;;;2.50;99.90;;;;;;5055242;28;20245;-48
2022/04/12 01:57:47;;;;;;;47.72;33.97;;;2.40;99.90;;;;;;5051884;28;20278;-52
2022/04/12 02:00:15;;;;;;;61.40;35.92;;;2.50;99.90;;;;;;5055716;28;20451;-48
2022/04/12 02:02:42;;;;;;;63.85;41.75;;;2.50;99.90;;;;;;5052073;28;20225;-47
2022/04/12 02:05:10;;;;;;;55.25;36.17;;;2.50;99.90;;;;;;5056200;28;20196;-48
2022/04/12 02:07:44;;;;;;;56.03;38.65;;;2.50;99.90;;;;;;5054162;28;20301;-52
2022/04/12 02:10:11;;;;;;;52.88;36.67;;;2.40;99.90;;;;;;5056377;28;20212;-51
2022/04/12 02:12:39;;;;;;;55.55;36.63;;;2.40;99.90;;;;;;5051021;28;20196;-50
2022/04/12 02:15:07;;;;;;;49.55;34.83;;;2.40;99.90;;;;;;5059434;28;20204;-50
2022/04/12 02:17:37;;;;;;;57.90;37.00;;;2.40;99.90;;;;;;5051503;28;20216;-46
2022/04/12 02:20:05;;;;;;;48.28;35.38;;;2.40;99.90;;;;;;5054774;28;20196;-46
2022/04/12 02:22:32;;;;;;;51.58;37.95;;;2.30;99.90;;;;;;5055567;28;20233;-49
2022/04/12 02:25:00;;;;;;;51.45;37.25;;;2.30;99.90;;;;;;5061554;28;20200;-51
2022/04/12 02:27:27;;;;;;;43.97;33.58;;;2.40;99.90;;;;;;5058681;28;20222;-53
2022/04/12 02:29:55;;;;;;;49.25;34.08;;;2.40;99.90;;;;;;5053353;28;20542;-47
2022/04/12 02:32:22;;;;;;;55.63;37.03;;;2.40;99.90;;;;;;5055061;28;20206;-51
2022/04/12 02:34:49;;;;;;;49.72;35.55;;;2.40;99.90;;;;;;5053649;28;20446;-48
2022/04/12 02:37:17;;;;;;;55.88;40.33;;;2.40;99.90;;;;;;5055843;28;20191;-47
2022/04/12 02:39:44;;;;;;;51.80;36.47;;;2.20;99.90;;;;;;5051062;28;20204;-50
2022/04/12 02:42:12;;;;;;;54.35;36.60;;;1.90;99.90;;;;;;5055966;28;20208;-49
2022/04/12 02:44:39;;;;;;;47.03;35.20;;;1.90;99.90;;;;;;5056007;28;20530;-50
2022/04/12 02:47:07;;;;;;;50.35;34.72;;;1.90;99.90;;;;;;5056058;28;20201;-49
2022/04/12 02:49:34;;;;;;;53.47;39.50;;;1.90;99.90;;;;;;5053335;28;20511;-50
2022/04/12 02:52:01;;;;;;;54.28;36.75;;;1.80;99.90;;;;;;5053479;28;20433;-46
2022/04/12 02:54:31;;;;;;;61.97;39.83;;;1.80;99.90;;;;;;5053382;28;20206;-49
2022/04/12 02:56:59;;;;;;;53.72;39.75;;;1.90;99.90;;;;;;5055771;28;20208;-48
2022/04/12 02:59:26;;;;;;;67.28;47.95;;;1.90;99.90;;;;;;5053925;28;20249;-49
2022/04/12 03:01:53;;;;;;;56.78;41.90;;;1.90;99.90;;;;;;5050483;28;20208;-50
2022/04/12 03:04:20;;;;;;;61.90;39.72;;;2.00;99.90;;;;;;5054652;28;20314;-50
2022/04/12 03:06:48;;;;;;;52.85;34.60;;;2.00;99.90;;;;;;5050194;28;20274;-51
2022/04/12 03:09:18;;;;;;;44.60;35.20;;;2.10;99.90;;;;;;5055593;28;20548;-49
2022/04/12 03:11:45;;;;;;;45.67;35.28;;;2.10;99.90;;;;;;5050579;28;20274;-50
2022/04/12 03:14:12;;;;;;;63.67;39.53;;;2.20;99.90;;;;;;5055669;28;20387;-47
2022/04/12 03:16:39;;;;;;;61.35;37.03;;;2.20;99.90;;;;;;5050514;28;20254;-50
2022/04/12 03:19:06;;;;;;;51.78;37.65;;;2.20;99.90;;;;;;5054080;28;20212;-47
2022/04/12 03:21:34;;;;;;;55.03;36.35;;;2.10;99.90;;;;;;5051676;28;20403;-47
2022/04/12 03:24:03;;;;;;;57.42;34.13;;;2.20;99.90;;;;;;5054968;28;20227;-49
2022/04/12 03:26:30;;;;;;;53.92;36.90;;;2.20;99.90;;;;;;5051903;28;20548;-47
2022/04/12 03:28:57;;;;;;;47.70;34.35;;;2.20;99.90;;;;;;5051313;28;20223;-49
2022/04/12 03:31:24;;;;;;;50.92;33.33;;;2.20;99.90;;;;;;5053960;28;20498;-48
2022/04/12 03:33:52;;;;;;;58.55;37.88;;;2.30;99.90;;;;;;5050344;28;20208;-52
2022/04/12 03:36:19;;;;;;;68.57;38.55;;;2.30;99.90;;;;;;5044784;28;20200;-49
2022/04/12 03:38:49;;;;;;;59.22;36.15;;;2.30;99.90;;;;;;5053137;28;20274;-49
2022/04/12 03:41:21;;;;;;;50.10;34.80;;;2.30;99.90;;;;;;5055798;28;20198;-47
2022/04/12 03:43:52;;;;;;;55.00;35.75;;;2.30;99.90;;;;;;5051943;28;20227;-47
2022/04/12 03:46:19;;;;;;;47.35;32.85;;;2.30;99.90;;;;;;5050281;28;20195;-52
2022/04/12 03:48:47;;;;;;;52.33;36.38;;;2.30;99.90;;;;;;5048033;28;20224;-47
2022/04/12 03:51:19;;;;;;;49.75;35.80;;;2.30;99.90;;;;;;5060104;28;20195;-47
2022/04/12 03:53:46;;;;;;;56.60;36.80;;;2.20;99.90;;;;;;5060329;28;20199;-50
2022/04/12 03:56:16;;;;;;;54.70;35.25;;;2.20;99.90;;;;;;5060973;28;20250;-50
2022/04/12 03:58:43;;;;;;;60.22;39.67;;;2.30;99.90;;;;;;5076425;28;20229;-48
2022/04/12 04:01:11;;;;;;;58.53;39.55;;;2.30;99.90;;;;;;5070048;28;20224;-49
2022/04/12 04:03:39;;;;;;;66.15;38.33;;;2.30;99.90;;;;;;5059534;28;20583;-48
2022/04/12 04:06:06;;;;;;;65.13;39.38;;;2.30;99.90;;;;;;5050386;28;20243;-47
2022/04/12 04:08:34;;;;;;;62.10;36.67;;;2.30;99.90;;;;;;5043244;28;20224;-47
2022/04/12 04:11:01;;;;;;;56.28;38.08;;;2.30;99.90;;;;;;5051932;28;20244;-48
2022/04/12 04:13:36;;;;;;;57.58;37.80;;;2.30;99.90;;;;;;5049803;28;20199;-51
2022/04/12 04:16:04;;;;;;;59.95;35.55;;;2.20;99.90;;;;;;5047337;28;20198;-50
2022/04/12 04:18:32;;;;;;;57.45;38.25;;;2.20;99.90;;;;;;5047106;28;20219;-47
2022/04/12 04:20:59;;;;;;;53.38;38.05;;;2.20;99.90;;;;;;5053406;28;20418;-47
2022/04/12 04:23:27;;;;;;;58.40;39.10;;;2.20;99.90;;;;;;5051253;28;20231;-47
2022/04/12 04:25:54;;;;;;;71.70;41.63;;;2.30;99.90;;;;;;5049951;28;20266;-50
2022/04/12 04:28:22;;;;;;;52.80;38.80;;;2.30;99.90;;;;;;5053459;28;20592;-48
2022/04/12 04:30:50;;;;;;;51.70;38.83;;;2.30;99.90;;;;;;5049737;28;20281;-48
2022/04/12 04:33:18;;;;;;;62.38;40.25;;;2.40;99.90;;;;;;5045555;28;20200;-49
2022/04/12 04:35:47;;;;;;;54.33;38.97;;;2.40;99.90;;;;;;5043540;28;20248;-47
2022/04/12 04:38:15;;;;;;;66.07;43.15;;;2.50;99.90;;;;;;5045009;28;20227;-46
2022/04/12 04:40:44;;;;;;;58.88;41.33;;;2.60;99.90;;;;;;5043367;28;20200;-47
2022/04/12 04:43:11;;;;;;;57.00;37.47;;;2.50;99.90;;;;;;5051778;28;20345;-50
2022/04/12 04:45:39;;;;;;;56.30;37.47;;;2.70;99.90;;;;;;5051202;28;20199;-47
2022/04/12 04:48:06;;;;;;;55.28;40.45;;;2.50;99.90;;;;;;5046130;28;20254;-47
2022/04/12 04:50:34;;;;;;;61.72;38.22;;;2.30;99.90;;;;;;5047747;28;20212;-48
2022/04/12 04:53:04;;;;;;;59.40;37.95;;;2.40;99.90;;;;;;5041732;28;20403;-47
2022/04/12 04:55:35;;;;;;;50.90;34.20;;;2.50;99.90;;;;;;5050224;28;20197;-50
2022/04/12 04:58:04;;;;;;;59.97;35.28;;;2.60;99.90;;;;;;5050958;28;20221;-50
2022/04/12 05:00:34;;;;;;;52.08;34.95;;;2.70;99.90;;;;;;5052686;28;20505;-48
2022/04/12 05:03:03;;;;;;;45.88;31.83;;;3.10;99.90;;;;;;5049258;28;20198;-51
2022/04/12 05:05:31;;;;;;;53.55;34.70;;;3.70;99.90;;;;;;5038274;28;20186;-50
2022/04/12 05:07:58;;;;;;;57.45;34.70;;;4.10;99.90;;;;;;5038570;28;20223;-48
2022/04/12 05:10:30;;;;;;;52.20;32.10;;;4.30;99.90;;;;;;5038798;28;20370;-50
2022/04/12 05:13:02;;;;;;;43.30;29.63;;;4.10;99.90;;;;;;5038914;28;20203;-48
2022/04/12 05:15:29;;;;;;;56.30;31.30;;;4.30;99.90;;;;;;5038955;28;20561;-48
2022/04/12 05:18:02;;;;;;;42.08;26.98;;;4.50;99.90;;;;;;5046862;28;20478;-46
2022/04/12 05:20:29;;;;;;;45.42;30.13;;;4.80;99.90;;;;;;5059900;28;20203;-47
2022/04/12 05:22:56;;;;;;;43.78;29.15;;;4.80;99.90;;;;;;5061779;28;20260;-50
2022/04/12 05:25:23;;;;;;;37.40;23.30;;;5.10;99.90;;;;;;5055019;28;20223;-48
2022/04/12 05:27:50;;;;;;;31.73;24.98;;;5.30;99.90;;;;;;5058782;28;20223;-51
2022/04/12 05:30:18;;;;;;;59.13;26.80;;;5.30;99.90;;;;;;5062898;28;20426;-48
2022/04/12 05:32:46;;;;;;;39.90;23.83;;;5.50;99.90;;;;;;5062398;28;20290;-50
2022/04/12 05:35:14;;;;;;;38.42;21.25;;;5.60;99.90;;;;;;5055401;28;20202;-51
2022/04/12 05:37:59;;;;;;;37.92;23.65;;;5.70;99.90;;;;;;5057063;28;20441;-50
2022/04/12 05:40:27;;;;;;;31.55;18.98;;;5.90;99.90;;;;;;5049062;28;20207;-50
2022/04/12 05:42:54;;;;;;;32.05;19.70;;;6.30;99.90;;;;;;5061563;28;20218;-50
2022/04/12 05:45:23;;;;;;;31.98;19.23;;;6.40;99.90;;;;;;5061143;28;20225;-47
2022/04/12 05:47:52;;;;;;;26.88;16.00;;;6.60;99.90;;;;;;5062645;28;20223;-48
2022/04/12 05:50:24;;;;;;;33.78;21.13;;;6.80;99.90;;;;;;5048218;28;20196;-49
2022/04/12 05:52:52;;;;;;;32.03;17.20;;;7.30;99.90;;;;;;5056141;28;20226;-49
2022/04/12 05:55:22;;;;;;;20.52;16.17;;;7.50;99.90;;;;;;5061510;28;20433;-48
2022/04/12 05:58:00;;;;;;;21.58;16.63;;;7.80;99.90;;;;;;5056344;28;20302;-49
2022/04/12 06:00:30;;;;;;;26.73;16.27;;;8.50;99.90;;;;;;5048910;28;20532;-50
2022/04/12 06:02:58;;;;;;;22.55;13.88;;;8.90;99.90;;;;;;5061297;28;20206;-52
2022/04/12 06:05:28;;;;;;;24.60;16.45;;;9.50;99.90;;;;;;5061365;28;20291;-52
2022/04/12 06:07:55;;;;;;;22.95;16.10;;;9.90;99.90;;;;;;5055166;28;20223;-51
2022/04/12 06:10:26;;;;;;;19.70;14.80;;;10.60;99.90;;;;;;5055790;28;20212;-52
2022/04/12 06:12:58;;;;;;;20.65;14.43;;;12.00;99.90;;;;;;5058012;28;20482;-53
2022/04/12 06:15:26;;;;;;;19.85;15.23;;;12.50;99.90;;;;;;5060857;28;20199;-49
2022/04/12 06:17:53;;;;;;;14.13;12.23;;;13.50;99.90;;;;;;5061220;28;20224;-50
2022/04/12 06:20:20;;;;;;;19.08;14.07;;;14.20;99.90;;;;;;5058315;28;20204;-50
2022/04/12 06:22:48;;;;;;;17.95;12.85;;;14.60;99.90;;;;;;5061276;28;20203;-49
2022/04/12 06:25:19;;;;;;;20.52;14.07;;;13.90;99.90;;;;;;5059730;28;20291;-53
2022/04/12 06:27:51;;;;;;;21.80;12.67;;;14.70;99.90;;;;;;5051528;28;20454;-52
2022/04/12 06:30:21;;;;;;;21.37;14.60;;;15.50;99.90;;;;;;5050721;28;20419;-50
2022/04/12 06:32:49;;;;;;;13.47;11.10;;;16.50;99.90;;;;;;5048648;28;20478;-50
2022/04/12 06:35:16;;;;;;;18.97;14.03;;;17.40;97.40;;;;;;5048041;28;20435;-51
2022/04/12 06:37:45;;;;;;;19.03;12.73;;;18.30;94.70;;;;;;5046000;28;20428;-51
2022/04/12 06:40:15;;;;;;;15.70;12.77;;;19.30;92.60;;;;;;5048087;28;20444;-54
2022/04/12 06:42:42;;;;;;;16.43;12.20;;;20.10;87.60;;;;;;5055627;28;20434;-51
2022/04/12 06:45:13;;;;;;;16.60;13.40;;;20.30;83.70;;;;;;5060437;28;20693;-53
2022/04/12 06:47:41;;;;;;;31.60;15.47;;;20.50;79.30;;;;;;5055212;28;20501;-53
2022/04/12 06:50:10;;;;;;;18.90;12.03;;;20.30;77.90;;;;;;5055025;28;20468;-55
2022/04/12 06:52:38;;;;;;;16.60;9.87;;;20.90;73.90;;;;;;5060326;28;20419;-54
2022/04/12 06:55:11;;;;;;;12.87;9.60;;;20.80;71.80;;;;;;5060297;28;20413;-49
2022/04/12 06:57:39;;;;;;;10.80;9.70;;;21.30;70.50;;;;;;5054564;28;20466;-55
2022/04/12 07:00:08;;;;;;;12.43;10.97;;;21.90;66.70;;;;;;5059986;28;20760;-54
2022/04/12 07:02:36;;;;;;;16.37;10.77;;;22.20;67.00;;;;;;5054588;28;20700;-50
2022/04/12 07:05:05;;;;;;;18.47;10.40;;;23.00;62.30;;;;;;5059531;28;20472;-54
2022/04/12 07:07:36;;;;;;;14.83;10.00;;;24.70;60.60;;;;;;5059592;28;20473;-53
2022/04/12 07:10:09;;;;;;;13.63;10.53;;;24.40;57.40;;;;;;5058081;28;20449;-51
2022/04/12 07:12:37;;;;;;;14.27;9.20;;;23.30;58.00;;;;;;5059621;28;20527;-52
2022/04/12 07:15:06;;;;;;;14.13;9.30;;;24.70;56.90;;;;;;5061832;28;20429;-49
2022/04/12 07:17:33;;;;;;;14.20;10.97;;;24.10;55.20;;;;;;5059430;28;20449;-52
2022/04/12 07:20:01;;;;;;;12.17;9.70;;;23.60;55.40;;;;;;5060054;28;20617;-51
2022/04/12 07:22:29;;;;;;;9.87;8.40;;;22.60;56.30;;;;;;5060218;28;20433;-54
2022/04/12 07:24:56;;;;;;;19.00;10.60;;;21.80;57.60;;;;;;5060663;28;20827;-52
2022/04/12 07:27:24;;;;;;;12.23;7.60;;;21.50;59.20;;;;;;5059865;28;20784;-50
2022/04/12 07:29:51;;;;;;;8.77;7.93;;;22.30;57.50;;;;;;5060516;28;20782;-50
2022/04/12 07:32:19;;;;;;;10.83;8.00;;;22.50;56.80;;;;;;5059742;28;20440;-54
2022/04/12 07:34:47;;;;;;;12.00;7.97;;;23.80;54.80;;;;;;5060774;28;20432;-53
2022/04/12 07:37:14;;;;;;;9.73;8.73;;;23.90;54.20;;;;;;5060516;28;20433;-53
2022/04/12 07:39:42;;;;;;;12.47;8.43;;;23.90;53.90;;;;;;5060881;28;20645;-50
2022/04/12 07:42:09;;;;;;;13.50;7.70;;;23.60;54.90;;;;;;5060297;28;20476;-53
2022/04/12 07:44:36;;;;;;;9.03;7.87;;;23.20;54.60;;;;;;5059896;28;20476;-51
2022/04/12 07:47:03;;;;;;;17.53;8.67;;;22.00;55.40;;;;;;5060711;28;20453;-51
2022/04/12 07:49:31;;;;;;;11.80;7.30;;;23.00;55.10;;;;;;5059168;28;20699;-50
2022/04/12 07:51:59;;;;;;;5.73;5.20;;;24.00;52.30;;;;;;5059934;28;20429;-51
2022/04/12 07:54:26;;;;;;;6.13;5.53;;;23.60;52.30;;;;;;5062823;28;20436;-56
2022/04/12 07:56:54;;;;;;;8.30;6.00;;;23.10;53.70;;;;;;5064223;28;20424;-50
2022/04/12 07:59:21;;;;;;;10.20;5.30;;;23.00;53.10;;;;;;5062952;28;20449;-50
2022/04/12 08:01:49;;;;;;;6.77;6.03;;;23.00;52.80;;;;;;5060101;28;20451;-51
2022/04/12 08:04:20;;;;;;;6.97;6.27;;;22.40;52.70;;;;;;5060229;28;20514;-55
2022/04/12 08:06:47;;;;;;;7.00;5.67;;;23.40;52.40;;;;;;5059623;28;20447;-50
2022/04/12 08:09:15;;;;;;;5.40;5.00;;;24.00;50.60;;;;;;5059580;28;20453;-53
2022/04/12 08:11:43;;;;;;;7.90;4.80;;;24.80;50.20;;;;;;5059452;28;20431;-49
2022/04/12 08:14:10;;;;;;;7.83;5.57;;;24.90;49.80;;;;;;5060270;28;20436;-53
2022/04/12 08:16:38;;;;;;;5.03;4.50;;;25.80;48.70;;;;;;5060186;28;20452;-49
2022/04/12 08:19:05;;;;;;;4.37;3.93;;;25.20;48.00;;;;;;5059639;28;20449;-50
2022/04/12 08:21:37;;;;;;;4.90;4.50;;;23.70;49.00;;;;;;5059854;28;20416;-49
2022/04/12 08:24:05;;;;;;;6.10;5.60;;;24.10;49.40;;;;;;5059452;28;20432;-50
2022/04/12 08:26:32;;;;;;;7.47;5.30;;;25.10;48.70;;;;;;5060197;28;20441;-52
2022/04/12 08:29:00;;;;;;;7.70;5.00;;;24.20;49.90;;;;;;5060485;28;20485;-50
2022/04/12 08:31:30;;;;;;;5.03;4.60;;;25.10;50.30;;;;;;5060419;28;20611;-50
2022/04/12 08:33:58;;;;;;;5.13;4.63;;;24.70;47.80;;;;;;5064841;28;20456;-54
2022/04/12 08:36:25;;;;;;;6.07;3.90;;;25.30;49.00;;;;;;5062750;28;20740;-50
2022/04/12 08:38:53;;;;;;;9.77;4.10;;;25.30;45.70;;;;;;5061951;28;20452;-53
2022/04/12 08:41:26;;;;;;;4.47;3.63;;;25.10;46.20;;;;;;5060820;28;20494;-52
2022/04/12 08:43:58;;;;;;;4.80;3.97;;;24.30;46.20;;;;;;5059693;28;20474;-55
2022/04/12 08:46:27;;;;;;;4.47;3.87;;;23.90;47.80;;;;;;5058803;28;20773;-53
2022/04/12 08:48:56;;;;;;;4.80;3.63;;;22.90;49.10;;;;;;5059408;28;20487;-54
2022/04/12 08:51:27;;;;;;;11.63;3.83;;;23.20;49.60;;;;;;5058950;28;20482;-49
2022/04/12 08:53:57;;;;;;;4.50;3.90;;;23.90;47.80;;;;;;5062052;28;20747;-48
2022/04/12 08:56:26;;;;;;;4.50;3.63;;;25.20;47.30;;;;;;5063128;28;20442;-49
2022/04/12 08:58:54;;;;;;;4.27;3.90;;;26.40;45.00;;;;;;5064109;28;20463;-51
2022/04/12 09:01:37;;;;;;;5.20;3.93;;;26.40;43.80;;;;;;5063454;28;20751;-51
2022/04/12 09:04:04;;;;;;;4.43;4.03;;;26.70;45.60;;;;;;5063332;28;20685;-51
2022/04/12 09:06:31;;;;;;;8.30;4.70;;;24.00;47.00;;;;;;5063018;28;20444;-52
2022/04/12 09:09:16;;;;;;;4.43;4.03;;;23.50;47.50;;;;;;5063038;28;20448;-52
2022/04/12 09:11:43;;;;;;;4.23;3.10;;;21.70;50.50;;;;;;5062989;28;20638;-51
2022/04/12 09:14:14;;;;;;;6.20;5.20;;;21.80;49.60;;;;;;5063038;28;21156;-51
2022/04/12 09:16:45;;;;;;;8.23;4.83;;;21.70;51.30;;;;;;5063514;28;20431;-51
2022/04/12 09:19:13;;;;;;;4.23;3.87;;;21.40;51.50;;;;;;5063141;28;20680;-52
2022/04/12 09:21:48;;;;;;;6.83;5.10;;;21.40;51.10;;;;;;5063369;28;20404;-53
2022/04/12 09:24:22;;;;;;;4.13;3.47;;;22.00;51.60;;;;;;5064178;28;20466;-52
2022/04/12 09:26:56;;;;;;;6.60;4.30;;;21.10;52.30;;;;;;5064833;28;20426;-54
2022/04/12 09:29:29;;;;;;;3.83;3.20;;;19.80;54.10;;;;;;5063169;28;20487;-48
2022/04/12 09:31:57;;;;;;;5.20;4.63;;;18.10;57.00;;;;;;5063370;28;20597;-49
2022/04/12 09:34:25;;;;;;;6.23;4.80;;;16.90;57.60;;;;;;5062787;28;20406;-49
2022/04/12 09:37:22;;;;;;;4.23;3.93;;;16.20;59.60;;;;;;5060198;28;20414;-51
2022/04/12 09:39:59;;;;;;;3.80;3.30;;;16.10;60.40;;;;;;5055946;28;20408;-51
2022/04/12 09:42:48;;;;;;;5.23;4.23;;;15.90;59.70;;;;;;5067845;28;20497;-49
2022/04/12 09:45:30;;;;;;;4.67;3.43;;;15.40;61.50;;;;;;5081685;28;20519;-51
2022/04/12 09:48:01;;;;;;;4.60;3.97;;;15.60;62.60;;;;;;5082853;28;20457;-54
2022/04/12 09:50:50;;;;;;;4.20;3.40;;;15.50;62.40;;;;;;5082316;28;20659;-54
2022/04/12 09:53:25;;;;;;;4.67;3.67;;;15.90;62.30;;;;;;5081737;28;20471;-56
2022/04/12 09:55:52;;;;;;;9.03;3.60;;;15.60;61.80;;;;;;5071100;28;20792;-49
2022/04/12 09:58:23;;;;;;;3.53;3.23;;;15.40;64.50;;;;;;5052822;28;20500;-51
2022/04/12 10:00:50;;;;;;;4.90;3.30;;;15.40;63.00;;;;;;5066689;28;20445;-54
2022/04/12 10:03:19;;;;;;;4.77;3.33;;;15.30;63.70;;;;;;5073557;28;20635;-50
2022/04/12 10:05:47;;;;;;;5.63;3.65;;;15.00;63.50;;;;;;5081098;28;20852;-49
2022/04/12 10:08:19;;;;;;;3.83;3.53;;;14.70;64.70;;;;;;5081539;28;20538;-51
2022/04/12 10:10:46;;;;;;;5.90;4.47;;;14.60;65.90;;;;;;5082342;28;20199;-52
2022/04/12 10:13:15;;;;;;;3.08;2.45;;;14.80;67.10;;;;;;5081500;28;20196;-47
2022/04/12 10:15:43;;;;;;;3.47;3.17;;;14.90;66.30;;;;;;5082093;28;20271;-52
2022/04/12 10:18:15;;;;;;;4.15;3.50;;;15.00;66.10;;;;;;5081796;28;20219;-54
2022/04/12 10:20:44;;;;;;;4.13;3.10;;;15.10;66.70;;;;;;5081534;28;20216;-51
2022/04/12 10:23:19;;;;;;;3.75;3.45;;;15.00;64.40;;;;;;5081781;28;20431;-54
2022/04/12 10:25:57;;;;;;;4.63;4.15;;;14.60;65.00;;;;;;5082855;28;20264;-52
2022/04/12 10:28:26;;;;;;;4.25;3.88;;;14.20;65.50;;;;;;5082992;28;20234;-51
2022/04/12 10:31:20;;;;;;;6.13;3.38;;;14.20;65.40;;;;;;5081419;28;20201;-48
2022/04/12 10:34:11;;;;;;;3.22;3.03;;;14.10;65.10;;;;;;5081509;28;20225;-51
2022/04/12 10:36:55;;;;;;;4.38;3.97;;;14.00;66.50;;;;;;5081110;28;20205;-51
2022/04/12 10:39:47;;;;;;;5.03;3.95;;;14.10;67.30;;;;;;5081615;28;20202;-52
2022/04/12 10:42:23;;;;;;;5.30;4.05;;;14.00;67.30;;;;;;5081052;28;20199;-53
2022/04/12 10:44:56;;;;;;;5.32;4.15;;;14.20;68.10;;;;;;5081394;28;20218;-55
2022/04/12 10:47:32;;;;;;;5.78;3.92;;;14.20;67.90;;;;;;5080958;28;20264;-49
2022/04/12 10:50:04;;;;;;;4.57;4.18;;;14.30;69.10;;;;;;5081275;28;20512;-49
2022/04/12 10:52:42;;;;;;;4.93;3.83;;;14.30;69.20;;;;;;5080797;28;20195;-55
2022/04/12 10:55:23;;;;;;;3.60;3.15;;;14.30;67.80;;;;;;5081082;28;20375;-51
2022/04/12 10:57:52;;;;;;;4.15;3.63;;;14.30;67.70;;;;;;5080938;28;20282;-53
2022/04/12 11:00:22;;;;;;;5.93;4.40;;;14.30;68.70;;;;;;5081127;28;20207;-53
2022/04/12 11:02:56;;;;;;;8.07;3.92;;;14.30;68.10;;;;;;5081145;28;20238;-51
2022/04/12 11:05:33;;;;;;;7.65;3.72;;;14.30;66.40;;;;;;5080767;28;20246;-50
2022/04/12 11:08:28;;;;;;;3.25;2.95;;;14.20;65.80;;;;;;5081021;28;20593;-53
2022/04/12 11:10:55;;;;;;;4.72;3.22;;;14.40;66.80;;;;;;5079996;28;20571;-49
2022/04/12 11:13:23;;;;;;;6.55;3.92;;;14.80;65.70;;;;;;5081074;28;20422;-50
2022/04/12 11:15:56;;;;;;;4.40;3.67;;;14.90;64.60;;;;;;5080309;28;20222;-50
2022/04/12 11:18:23;;;;;;;4.35;3.85;;;14.90;65.40;;;;;;5080550;28;20273;-52
2022/04/12 11:21:03;;;;;;;5.35;3.45;;;15.10;68.50;;;;;;5080212;28;20222;-51
2022/04/12 11:23:47;;;;;;;5.85;4.10;;;15.10;67.40;;;;;;5080569;28;20199;-50
2022/04/12 11:26:50;;;;;;;10.07;5.57;;;15.00;65.70;;;;;;5080283;28;20227;-52
2022/04/12 11:29:21;;;;;;;5.47;3.85;;;14.80;65.20;;;;;;5080309;28;20260;-51
2022/04/12 11:31:56;;;;;;;3.60;3.22;;;14.50;65.60;;;;;;5080415;28;20482;-50
2022/04/12 11:34:28;;;;;;;4.85;4.45;;;14.60;67.20;;;;;;5080320;28;20203;-52
2022/04/12 11:37:00;;;;;;;6.82;4.18;;;14.70;66.90;;;;;;5080094;28;20199;-53
2022/04/12 11:39:30;;;;;;;4.05;3.63;;;15.10;64.60;;;;;;5080403;28;20236;-49
2022/04/12 11:41:59;;;;;;;3.60;3.25;;;15.10;64.90;;;;;;5080234;28;20247;-53
2022/04/12 11:44:27;;;;;;;4.82;4.32;;;14.90;64.70;;;;;;5079995;28;20394;-50
2022/04/12 11:46:55;;;;;;;5.25;4.00;;;14.90;65.30;;;;;;5080155;28;20223;-52
2022/04/12 11:49:29;;;;;;;4.65;4.25;;;14.90;65.30;;;;;;5079752;28;20216;-53
2022/04/12 11:51:59;;;;;;;4.10;3.72;;;14.90;64.80;;;;;;5080142;28;20428;-48
2022/04/12 11:54:35;;;;;;;4.43;4.03;;;14.80;66.00;;;;;;5079309;28;20287;-49
2022/04/12 11:57:08;;;;;;;7.93;5.30;;;14.70;65.10;;;;;;5079964;28;20244;-53
2022/04/12 11:59:37;;;;;;;5.30;4.07;;;14.70;65.10;;;;;;5079569;28;20440;-51
2022/04/12 12:02:06;;;;;;;4.47;4.07;;;14.60;66.30;;;;;;5079957;28;20245;-51
2022/04/12 12:04:35;;;;;;;4.55;4.15;;;14.70;66.40;;;;;;5079603;28;20199;-53
2022/04/12 12:07:06;;;;;;;4.45;4.05;;;14.70;65.00;;;;;;5079756;28;20510;-54
2022/04/12 12:09:51;;;;;;;4.85;4.13;;;14.60;65.00;;;;;;5084837;28;20205;-57
2022/04/12 12:12:19;;;;;;;4.10;3.80;;;14.70;64.20;;;;;;5083301;28;20232;-53
2022/04/12 12:14:46;;;;;;;4.10;3.80;;;14.80;62.90;;;;;;5081298;28;20222;-55
2022/04/12 12:17:18;;;;;;;4.72;3.63;;;14.80;64.80;;;;;;5080488;28;20233;-53
2022/04/12 12:19:45;;;;;;;5.40;4.15;;;14.70;64.20;;;;;;5083015;28;20510;-53
2022/04/12 12:22:14;;;;;;;5.45;4.95;;;14.50;65.00;;;;;;5082104;28;20218;-52
2022/04/12 12:24:52;;;;;;;9.02;4.70;;;14.40;66.00;;;;;;5088587;28;20245;-53
2022/04/12 12:27:37;;;;;;;4.32;3.92;;;14.30;65.40;;;;;;5086128;28;20377;-56
2022/04/12 12:30:32;;;;;;;4.13;3.72;;;14.50;65.90;;;;;;5086211;28;20241;-54
2022/04/12 12:32:59;;;;;;;7.47;4.00;;;14.60;66.00;;;;;;5084984;28;20236;-55
2022/04/12 12:35:28;;;;;;;5.93;3.83;;;14.60;65.40;;;;;;5085672;28;20211;-49
2022/04/12 12:38:11;;;;;;;3.92;3.60;;;14.80;63.80;;;;;;5079046;28;20448;-51
2022/04/12 12:40:39;;;;;;;5.75;3.97;;;14.90;62.90;;;;;;5079687;28;20205;-49
2022/04/12 12:43:09;;;;;;;6.20;3.90;;;14.80;64.40;;;;;;5080004;28;20464;-53
2022/04/12 12:45:42;;;;;;;4.85;4.18;;;15.00;65.40;;;;;;5080462;28;20232;-50
2022/04/12 12:48:13;;;;;;;5.90;4.53;;;15.20;64.60;;;;;;5079892;28;20562;-49
2022/04/12 12:50:42;;;;;;;7.18;5.32;;;15.20;64.10;;;;;;5079470;28;20226;-49
2022/04/12 12:53:12;;;;;;;4.88;4.38;;;14.90;63.50;;;;;;5079993;28;20203;-55
2022/04/12 12:55:42;;;;;;;6.15;3.90;;;14.80;63.50;;;;;;5079667;28;20199;-50
2022/04/12 12:58:13;;;;;;;6.32;4.55;;;14.70;63.80;;;;;;5079610;28;20222;-52